Waterbury, CT

9:30 AM EST on November 22, 2014 (GMT -0500)
Overlook | Change Station
CLOSE
Current Station
Personal Weather Station
Location: Waterbury, CT
Elevation: 577 ft
Nearby Weather Stations

Elev 577 ft 41.58 °N, 73.04 °W | Updated 8 seconds ago

Partly Cloudy
Partly Cloudy
29.3 °F
Feels Like 22 °F
N
8.0
Wind Variable Wind from WSW
Gusts 0.0 mph

Today
High -- | Low -- °F
--% Chance of Precip.
Yesterday
High -- | Low -- °F
Precip. -- in
6:49 AM 4:27 PM
New Moon, 0% visible
Pressure 30.40 in
Visibility 10.0 miles
Clouds Scattered Clouds 25000 ft
Windchill 22 °F
Dew Point 15 °F
Humidity 55%
Rainfall 0.00 in
Snow Depth Not available.
UV 1 out of 12
Pollen .10 out of 12
Air Quality Not available.
Flu Activity Not available.
METAR KOXC 221352Z VRB04KT 10SM SCT250 M02/M12 A3040

More Conditions Fewer Conditions

Pressure 30.40 in
Visibility 10.0 miles
Clouds Scattered Clouds 25000 ft
Windchill 22 °F
Dew Point 15 °F
Humidity 55%
Rainfall 0.00 in
Snow Depth Not available.
UV 1 out of 12
Pollen .10 out of 12
Air Quality Not available.
Flu Activity Not available.
METAR KOXC 221352Z VRB04KT 10SM SCT250 M02/M12 A3040

More Conditions Fewer Conditions

10-Day Weather Forecast

Almanac

Astronomy

Nov. 22, 2014 Rise Set
Actual Time
Civil Twilight
Nautical Twilight
Astronomical Twilight
Moon
Length of Visible Light
Length of Day
Tomorrow will be .
, % of the Moon is Illuminated

Today's Extremes

State Highs State Lows

Community

WunderPhotos

Upload Photos

1,772,821 photos uploaded!

WunderBlogs® & News

Nearby

Air Quality

  Air Quality AQ Index Pollutant
Not available.

Snow Depth

Station Depth Elevation

Earthquake Activity

City Distance Mag. Time & Date
Minimum magnitude displayed is 2.5.

Coastal Water Temperatures

Place Temperature

Nearby Weather Stations